createdAt,value
2018-08-07T00:01:11.704Z,54.90
2018-08-07T00:03:41.651Z,55.10
2018-08-07T00:06:10.896Z,55.30
2018-08-07T00:08:40.054Z,55.60
2018-08-07T00:11:09.120Z,55.80
2018-08-07T00:13:38.458Z,56.10
2018-08-07T00:21:04.932Z,56.80
2018-08-07T00:23:33.971Z,57.10
2018-08-07T00:26:03.092Z,57.30
2018-08-07T00:28:32.284Z,57.40
2018-08-07T00:31:01.406Z,57.70
2018-08-07T00:33:30.524Z,57.80
2018-08-07T00:35:59.625Z,58.00
2018-08-07T00:38:28.692Z,58.00
2018-08-07T00:40:57.830Z,58.20
2018-08-07T00:43:26.925Z,58.30
2018-08-07T00:45:56.012Z,58.40
2018-08-07T00:48:25.086Z,58.50
2018-08-07T00:53:22.803Z,58.90
2018-08-07T00:55:51.796Z,59.10
2018-08-07T00:58:20.796Z,59.30
2018-08-07T01:00:49.858Z,59.50
2018-08-07T01:03:18.890Z,59.60
2018-08-07T01:05:47.965Z,59.80
2018-08-07T01:08:16.976Z,59.90
2018-08-07T01:10:46.030Z,60.50
2018-08-07T01:13:15.072Z,60.60
2018-08-07T01:15:44.169Z,61.00
2018-08-07T01:18:13.319Z,61.20
2018-08-07T01:20:42.318Z,61.40
2018-08-07T01:23:11.379Z,61.80
2018-08-07T01:30:37.920Z,63.10
2018-08-07T01:33:06.944Z,62.80
2018-08-07T01:38:04.715Z,63.60
2018-08-07T01:40:33.814Z,63.90
2018-08-07T01:45:31.815Z,64.70
2018-08-07T01:50:29.569Z,65.10
2018-08-07T01:52:58.816Z,66.20
2018-08-07T01:55:28.526Z,66.30
2018-08-07T01:57:58.216Z,66.30
2018-08-07T02:00:27.335Z,65.90
2018-08-07T02:02:56.480Z,65.80
2018-08-07T02:05:25.596Z,65.70
2018-08-07T02:07:54.715Z,65.70
2018-08-07T02:10:23.797Z,65.70
2018-08-07T02:12:52.818Z,65.70
2018-08-07T02:15:21.935Z,66.10
2018-08-07T02:17:50.923Z,66.30
2018-08-07T02:20:20.001Z,66.30
2018-08-07T02:22:49.108Z,66.80
2018-08-07T02:25:19.446Z,67.10
2018-08-07T02:27:48.826Z,67.00
2018-08-07T02:30:18.330Z,67.10
2018-08-07T02:32:47.407Z,67.30
2018-08-07T02:35:17.029Z,67.50
2018-08-07T02:37:46.906Z,67.50
2018-08-07T02:40:16.533Z,67.80
2018-08-07T02:42:45.686Z,67.90
2018-08-07T02:45:16.508Z,68.20
2018-08-07T02:47:45.927Z,68.20
2018-08-07T02:52:45.216Z,68.70
2018-08-07T02:55:14.239Z,69.10
2018-08-07T03:00:15.473Z,69.80
2018-08-07T03:02:44.754Z,69.80
2018-08-07T03:05:14.060Z,70.10
2018-08-07T03:07:43.200Z,70.40
2018-08-07T03:10:12.361Z,70.80
2018-08-07T03:12:41.447Z,71.10
2018-08-07T03:15:15.133Z,71.30
2018-08-07T03:17:45.148Z,71.60
2018-08-07T03:20:14.254Z,72.10
2018-08-07T03:22:43.309Z,72.60
2018-08-07T03:25:18.951Z,72.00
2018-08-07T03:27:48.003Z,72.30
2018-08-07T03:30:19.270Z,72.50
2018-08-07T03:32:48.804Z,72.90
2018-08-07T03:35:17.835Z,72.90
2018-08-07T03:37:46.951Z,73.00
2018-08-07T03:40:17.301Z,73.20
2018-08-07T03:45:16.252Z,73.70
2018-08-07T03:47:46.062Z,73.70
2018-08-07T03:50:15.075Z,74.00
2018-08-07T03:52:44.124Z,73.90
2018-08-07T03:55:16.140Z,74.10
2018-08-07T03:57:45.771Z,74.20
2018-08-07T04:02:45.826Z,74.50
2018-08-07T04:05:15.192Z,74.30
2018-08-07T04:10:15.326Z,74.80
2018-08-07T04:12:44.363Z,75.60
2018-08-07T04:15:15.631Z,75.00
2018-08-07T04:17:44.979Z,75.20
2018-08-07T04:22:44.135Z,76.00
2018-08-07T04:25:13.133Z,75.80
2018-08-07T04:27:42.169Z,75.90
2018-08-07T04:30:14.530Z,76.00
2018-08-07T04:32:44.105Z,76.60
2018-08-07T04:35:13.909Z,76.00
2018-08-07T04:37:43.153Z,76.00
2018-08-07T04:40:12.241Z,75.90
2018-08-07T04:42:42.299Z,76.10
2018-08-07T04:45:32.281Z,75.80
2018-08-07T04:48:01.390Z,75.60
2018-08-07T04:52:59.307Z,75.40
2018-08-07T04:55:28.372Z,75.20
2018-08-07T04:57:57.465Z,75.20
2018-08-07T05:00:26.614Z,74.60
2018-08-07T05:02:55.641Z,74.70
2018-08-07T05:05:24.685Z,74.80
2018-08-07T05:07:53.731Z,74.70
2018-08-07T05:10:22.913Z,74.70
2018-08-07T05:12:52.004Z,74.80
2018-08-07T05:15:21.088Z,74.60
2018-08-07T05:20:18.842Z,74.40
2018-08-07T05:22:47.881Z,74.20
2018-08-07T05:25:17.006Z,74.20
2018-08-07T05:27:46.094Z,74.00
2018-08-07T05:30:16.124Z,73.80
2018-08-07T05:32:45.204Z,74.10
2018-08-07T05:35:15.268Z,74.20
2018-08-07T05:37:44.670Z,74.20
2018-08-07T05:40:13.759Z,74.30
2018-08-07T05:42:42.911Z,74.30
2018-08-07T05:47:41.541Z,74.20
2018-08-07T05:50:13.308Z,73.70
2018-08-07T05:52:42.643Z,73.20
2018-08-07T05:55:12.054Z,73.10
2018-08-07T05:57:41.231Z,72.90
2018-08-07T06:00:13.482Z,72.70
2018-08-07T06:02:42.485Z,72.90
2018-08-07T06:05:12.598Z,73.00
2018-08-07T06:07:41.647Z,71.90
2018-08-07T06:10:12.143Z,71.60
2018-08-07T06:15:12.224Z,71.00
2018-08-07T06:17:42.156Z,70.70
2018-08-07T06:20:11.771Z,70.40
2018-08-07T06:22:40.915Z,69.80
2018-08-07T06:25:10.554Z,69.50
2018-08-07T06:27:39.741Z,69.30
2018-08-07T06:30:11.118Z,69.20
2018-08-07T06:32:40.186Z,68.10
2018-08-07T06:35:10.606Z,67.40
2018-08-07T06:37:40.499Z,66.90
2018-08-07T06:40:11.185Z,66.80
2018-08-07T06:42:40.260Z,66.30
2018-08-07T06:45:10.660Z,64.90
2018-08-07T06:47:39.717Z,64.70
2018-08-07T06:52:42.211Z,63.90
2018-08-07T06:57:41.112Z,63.00
2018-08-07T07:02:41.598Z,60.60
2018-08-07T07:05:11.166Z,60.20
2018-08-07T07:10:10.402Z,59.10
2018-08-07T07:12:39.493Z,58.60
2018-08-07T07:15:10.103Z,58.30
2018-08-07T07:22:37.920Z,57.70
2018-08-07T07:25:07.431Z,57.10
2018-08-07T07:27:36.829Z,56.90
2018-08-07T07:30:12.432Z,56.60
2018-08-07T07:32:41.770Z,56.70
2018-08-07T07:40:09.299Z,55.30
2018-08-07T07:42:38.548Z,54.70
2018-08-07T07:47:41.311Z,53.80
2018-08-07T07:50:14.421Z,53.70
2018-08-07T07:52:43.949Z,53.30
2018-08-07T07:55:14.952Z,52.90
2018-08-07T07:57:44.040Z,52.30
2018-08-07T08:00:17.954Z,52.20
2018-08-07T08:02:47.570Z,52.20
2018-08-07T08:05:16.395Z,51.20
2018-08-07T08:07:45.607Z,50.30
2018-08-07T08:10:14.757Z,49.90
2018-08-07T08:12:43.884Z,49.80
2018-08-07T08:15:15.042Z,49.80
2018-08-07T08:17:45.552Z,49.30
2018-08-07T08:20:19.100Z,48.70
2018-08-07T08:22:56.079Z,48.10
2018-08-07T08:25:25.150Z,47.40
2018-08-07T08:27:54.292Z,47.30
2018-08-07T08:32:52.267Z,46.40
2018-08-07T08:35:21.467Z,46.10
2018-08-07T08:40:21.423Z,46.20
2018-08-07T08:42:50.609Z,46.50
2018-08-07T08:47:50.724Z,44.80
2018-08-07T08:52:49.210Z,43.60
2018-08-07T08:55:18.381Z,43.80
2018-08-07T08:57:47.583Z,43.50
2018-08-07T09:00:19.690Z,43.80
2018-08-07T09:02:48.757Z,43.10
2018-08-07T09:05:19.429Z,43.20
2018-08-07T09:07:51.486Z,42.60
2018-08-07T09:10:25.641Z,42.50
2018-08-07T09:12:58.132Z,42.30
2018-08-07T09:17:59.908Z,41.00
2018-08-07T09:20:30.507Z,41.10
2018-08-07T09:25:30.480Z,40.80
2018-08-07T09:27:59.481Z,40.20
2018-08-07T09:30:29.765Z,39.80
2018-08-07T09:32:59.533Z,39.70
2018-08-07T09:35:29.635Z,39.50
2018-08-07T09:37:59.228Z,39.30
2018-08-07T09:40:28.492Z,38.50
2018-08-07T09:42:58.042Z,38.60
2018-08-07T09:45:30.390Z,38.90
2018-08-07T09:48:00.116Z,38.90
2018-08-07T09:50:29.223Z,38.50
2018-08-07T09:55:26.962Z,39.10
2018-08-07T09:57:56.103Z,38.60
2018-08-07T10:00:30.568Z,38.70
2018-08-07T10:03:05.143Z,38.80
2018-08-07T10:10:32.584Z,37.90
2018-08-07T10:13:01.663Z,37.90
2018-08-07T10:15:30.746Z,38.00
2018-08-07T10:18:00.027Z,37.80
2018-08-07T10:20:29.106Z,37.80
2018-08-07T10:22:58.136Z,37.50
2018-08-07T10:25:27.739Z,37.50
2018-08-07T10:27:56.863Z,37.40
2018-08-07T10:30:26.518Z,37.40
2018-08-07T10:32:55.695Z,37.00
2018-08-07T10:35:26.141Z,37.20
2018-08-07T10:40:25.837Z,37.80
2018-08-07T10:42:54.964Z,37.60
2018-08-07T10:47:54.547Z,37.40
2018-08-07T10:50:25.722Z,37.30
2018-08-07T10:55:24.506Z,37.30
2018-08-07T10:57:56.167Z,37.40
2018-08-07T11:00:27.312Z,37.10
2018-08-07T11:02:57.297Z,37.00
2018-08-07T11:05:27.200Z,37.30
2018-08-07T11:07:56.346Z,37.30
2018-08-07T11:12:55.674Z,37.20
2018-08-07T11:17:59.120Z,37.10
2018-08-07T11:20:28.313Z,37.30
2018-08-07T11:22:59.041Z,37.60
2018-08-07T11:25:28.980Z,37.40
2018-08-07T11:27:58.132Z,37.10
2018-08-07T11:35:27.554Z,35.40
2018-08-07T11:40:26.771Z,36.20
2018-08-07T11:45:26.976Z,35.90
2018-08-07T11:47:56.135Z,35.80
2018-08-07T11:50:26.525Z,35.60
2018-08-07T11:55:24.789Z,34.70
2018-08-07T11:57:54.640Z,34.60
2018-08-07T12:02:54.290Z,34.80
2018-08-07T12:05:24.614Z,34.30
2018-08-07T12:07:54.021Z,34.10
2018-08-07T12:10:23.099Z,32.80
2018-08-07T12:12:52.172Z,31.60
2018-08-07T12:17:53.180Z,32.10
2018-08-07T12:20:22.352Z,32.00
2018-08-07T12:22:51.447Z,31.90
2018-08-07T12:25:20.887Z,31.20
2018-08-07T12:27:50.005Z,31.20
2018-08-07T12:32:53.160Z,30.10
2018-08-07T12:35:22.231Z,28.90
2018-08-07T12:37:51.294Z,28.40
2018-08-07T12:40:25.391Z,27.70
2018-08-07T12:42:57.775Z,26.90
2018-08-07T12:45:26.930Z,26.30
2018-08-07T12:47:56.089Z,24.80
2018-08-07T12:50:25.310Z,24.00
2018-08-07T12:55:29.698Z,24.40
2018-08-07T13:00:29.824Z,24.10
2018-08-07T13:02:58.979Z,23.60
2018-08-07T13:05:28.072Z,23.60
2018-08-07T13:07:57.147Z,22.80
2018-08-07T13:10:26.705Z,22.40
2018-08-07T13:12:56.415Z,21.60
2018-08-07T13:15:25.677Z,21.40
2018-08-07T13:17:55.819Z,21.40
2018-08-07T13:20:24.976Z,21.60
2018-08-07T13:22:54.207Z,21.50
2018-08-07T13:25:23.826Z,21.10
2018-08-07T13:27:53.379Z,21.00
2018-08-07T13:30:24.415Z,20.50
2018-08-07T13:32:54.186Z,20.30
2018-08-07T13:35:23.262Z,20.40
2018-08-07T13:37:53.074Z,20.20
2018-08-07T13:40:23.809Z,20.20
2018-08-07T13:42:52.903Z,20.80
2018-08-07T13:45:24.191Z,20.80
2018-08-07T13:50:23.324Z,20.30
2018-08-07T13:52:52.856Z,20.00
2018-08-07T13:55:23.220Z,19.80
2018-08-07T13:57:52.271Z,19.60
2018-08-07T14:00:23.266Z,19.60
2018-08-07T14:07:51.678Z,19.50
2018-08-07T14:15:20.213Z,19.10
2018-08-07T14:17:49.432Z,18.90
2018-08-07T14:20:18.781Z,18.60
2018-08-07T14:25:22.095Z,18.80
2018-08-07T14:27:51.284Z,19.00
2018-08-07T14:35:24.342Z,18.60
2018-08-07T14:37:53.368Z,18.50
2018-08-07T14:40:24.221Z,18.40
2018-08-07T14:42:53.778Z,18.80
2018-08-07T14:45:24.366Z,19.30
2018-08-07T14:47:54.382Z,19.80
2018-08-07T14:52:54.235Z,19.80
2018-08-07T14:55:23.402Z,18.90
2018-08-07T14:57:53.339Z,19.00
2018-08-07T15:00:25.191Z,18.60
2018-08-07T15:02:54.550Z,18.60
2018-08-07T15:05:23.628Z,18.50
2018-08-07T15:07:52.663Z,18.20
2018-08-07T15:10:23.219Z,18.30
2018-08-07T15:12:52.304Z,18.10
2018-08-07T15:17:54.183Z,17.50
2018-08-07T15:20:24.866Z,17.70
2018-08-07T15:22:54.736Z,17.80
2018-08-07T15:25:24.274Z,18.00
2018-08-07T15:27:53.443Z,18.20
2018-08-07T15:30:24.119Z,18.90
2018-08-07T15:32:53.637Z,19.20
2018-08-07T15:35:24.123Z,19.30
2018-08-07T15:45:20.941Z,19.00
2018-08-07T15:50:20.072Z,18.40
2018-08-07T15:55:20.884Z,19.20
2018-08-07T15:57:49.994Z,19.20
2018-08-07T16:02:53.172Z,19.10
2018-08-07T16:05:22.267Z,19.10
2018-08-07T16:07:52.236Z,19.30
2018-08-07T16:12:51.390Z,19.80
2018-08-07T16:15:20.557Z,19.70
2018-08-07T16:17:50.615Z,19.90
2018-08-07T16:20:20.140Z,20.20
2018-08-07T16:22:49.199Z,20.40
2018-08-07T16:25:19.694Z,20.70
2018-08-07T16:27:49.521Z,21.70
2018-08-07T16:30:20.020Z,22.20
2018-08-07T16:32:49.067Z,23.00
2018-08-07T16:35:18.269Z,23.60
2018-08-07T16:37:47.498Z,23.90
2018-08-07T16:40:18.157Z,24.30
2018-08-07T16:42:47.962Z,24.70
2018-08-07T16:45:18.323Z,25.00
2018-08-07T16:47:47.804Z,25.20
2018-08-07T16:50:18.835Z,25.50
2018-08-07T16:52:48.527Z,25.70
2018-08-07T16:55:17.629Z,26.00
2018-08-07T17:00:15.394Z,26.70
2018-08-07T17:07:43.717Z,26.90
2018-08-07T17:10:17.242Z,27.00
2018-08-07T17:12:46.293Z,27.10
2018-08-07T17:20:15.608Z,27.50
2018-08-07T17:22:44.807Z,27.60
2018-08-07T17:25:14.963Z,28.30
2018-08-07T17:27:45.191Z,27.80
2018-08-07T17:30:17.821Z,27.90
2018-08-07T17:35:18.170Z,28.10
2018-08-07T17:37:48.268Z,28.50
2018-08-07T17:40:18.976Z,28.70
2018-08-07T17:42:48.088Z,28.90
2018-08-07T17:45:17.108Z,29.00
2018-08-07T17:50:18.752Z,29.30
2018-08-07T17:52:48.103Z,29.90
2018-08-07T17:55:21.610Z,29.60
2018-08-07T17:57:52.248Z,29.70
2018-08-07T18:00:22.624Z,30.00
2018-08-07T18:02:51.827Z,30.00
2018-08-07T18:07:51.469Z,30.40
2018-08-07T18:10:21.669Z,30.50
2018-08-07T18:15:20.775Z,31.00
2018-08-07T18:20:21.325Z,31.50
2018-08-07T18:22:50.465Z,31.80
2018-08-07T18:25:19.633Z,31.90
2018-08-07T18:27:48.802Z,31.90
2018-08-07T18:30:20.300Z,32.10
2018-08-07T18:32:49.684Z,32.40
2018-08-07T18:35:22.023Z,32.50
2018-08-07T18:40:20.559Z,32.40
2018-08-07T18:42:50.344Z,32.60
2018-08-07T18:47:49.931Z,32.80
2018-08-07T18:50:20.798Z,32.80
2018-08-07T18:52:50.203Z,33.00
2018-08-07T18:55:19.374Z,33.20
2018-08-07T18:57:49.639Z,33.40
2018-08-07T19:00:20.442Z,33.20
2018-08-07T19:02:49.497Z,33.50
2018-08-07T19:05:19.739Z,33.80
2018-08-07T19:07:49.459Z,33.90
2018-08-07T19:10:19.645Z,33.90
2018-08-07T19:12:49.399Z,34.10
2018-08-07T19:17:49.132Z,34.30
2018-08-07T19:20:20.527Z,34.40
2018-08-07T19:22:49.940Z,34.40
2018-08-07T19:25:20.521Z,34.40
2018-08-07T19:27:50.116Z,34.50
2018-08-07T19:30:21.165Z,34.40
2018-08-07T19:32:50.349Z,34.40
2018-08-07T19:35:19.467Z,34.40
2018-08-07T19:37:48.631Z,34.30
2018-08-07T19:42:48.240Z,34.40
2018-08-07T19:45:18.139Z,34.30
2018-08-07T19:47:47.743Z,34.40
2018-08-07T19:50:19.575Z,34.40
2018-08-07T19:52:49.276Z,34.40
2018-08-07T19:55:20.790Z,34.40
2018-08-07T19:57:49.823Z,34.40
2018-08-07T20:00:23.379Z,34.60
2018-08-07T20:02:52.641Z,34.70
2018-08-07T20:05:22.084Z,34.70
2018-08-07T20:07:51.902Z,34.80
2018-08-07T20:10:21.467Z,34.60
2018-08-07T20:12:50.772Z,34.90
2018-08-07T20:15:22.175Z,34.90
2018-08-07T20:17:52.039Z,35.00
2018-08-07T20:20:21.619Z,35.00
2018-08-07T20:22:50.921Z,35.80
2018-08-07T20:25:20.242Z,35.10
2018-08-07T20:30:19.892Z,35.10
2018-08-07T20:32:50.300Z,35.40
2018-08-07T20:35:19.325Z,35.40
2018-08-07T20:37:48.354Z,35.30
2018-08-07T20:40:18.794Z,35.40
2018-08-07T20:42:48.054Z,35.50
2018-08-07T20:45:18.043Z,35.70
2018-08-07T20:47:47.078Z,35.80
2018-08-07T20:50:20.289Z,35.90
2018-08-07T20:52:49.646Z,36.00
2018-08-07T20:55:18.868Z,36.20
2018-08-07T20:57:48.130Z,36.20
2018-08-07T21:00:19.740Z,36.30
2018-08-07T21:02:49.059Z,36.40
2018-08-07T21:07:47.149Z,36.50
2018-08-07T21:10:19.834Z,35.90
2018-08-07T21:12:48.913Z,36.50
2018-08-07T21:15:17.983Z,36.50
2018-08-07T21:17:47.088Z,36.30
2018-08-07T21:20:18.211Z,36.40
2018-08-07T21:22:47.604Z,36.50
2018-08-07T21:25:21.462Z,36.60
2018-08-07T21:27:53.267Z,36.60
2018-08-07T21:30:24.074Z,36.60
2018-08-07T21:32:53.346Z,36.70
2018-08-07T21:35:23.320Z,36.70
2018-08-07T21:37:52.558Z,36.80
2018-08-07T21:40:22.967Z,36.90
2018-08-07T21:45:22.013Z,37.10
2018-08-07T21:47:51.863Z,37.30
2018-08-07T21:50:23.362Z,37.50
2018-08-07T21:52:54.206Z,37.60
2018-08-07T21:55:23.370Z,37.70
2018-08-07T21:57:52.532Z,37.70
2018-08-07T22:00:29.613Z,37.80
2018-08-07T22:02:58.895Z,37.90
2018-08-07T22:05:28.177Z,37.90
2018-08-07T22:07:57.629Z,38.20
2018-08-07T22:10:27.088Z,38.20
2018-08-07T22:12:56.786Z,38.00
2018-08-07T22:15:26.077Z,38.50
2018-08-07T22:17:55.219Z,38.70
2018-08-07T22:20:24.443Z,38.70
2018-08-07T22:25:22.947Z,38.70
2018-08-07T22:30:22.672Z,38.70
2018-08-07T22:35:21.075Z,39.00
2018-08-07T22:37:50.876Z,39.20
2018-08-07T22:40:20.174Z,39.50
2018-08-07T22:45:19.648Z,39.30
2018-08-07T22:47:48.847Z,39.70
2018-08-07T22:50:19.065Z,39.50
2018-08-07T22:52:48.621Z,39.50
2018-08-07T22:57:47.965Z,39.50
2018-08-07T23:00:20.764Z,39.60
2018-08-07T23:02:49.967Z,39.60
2018-08-07T23:05:19.772Z,39.70
2018-08-07T23:07:48.924Z,39.70
2018-08-07T23:10:20.598Z,39.70
2018-08-07T23:12:49.725Z,39.80
2018-08-07T23:15:22.604Z,39.90
2018-08-07T23:17:51.984Z,39.90
2018-08-07T23:20:22.663Z,40.00
2018-08-07T23:25:21.925Z,40.10
2018-08-07T23:27:51.018Z,40.10
2018-08-07T23:30:20.812Z,40.10
2018-08-07T23:32:49.862Z,40.30
2018-08-07T23:35:19.083Z,40.40
2018-08-07T23:37:48.289Z,40.40
2018-08-07T23:40:17.369Z,40.60
2018-08-07T23:42:46.566Z,40.80
2018-08-07T23:45:16.257Z,40.70
2018-08-07T23:47:45.509Z,40.70
2018-08-07T23:50:14.995Z,40.80
2018-08-07T23:52:44.162Z,40.90
2018-08-07T23:55:13.549Z,41.00
2018-08-07T23:57:43.774Z,41.10
